Time;durP1;ratioP1;P1;durP2;ratioP2;P2;SDS_P1;SDS_P2;PMS_P1;PMS_P2;Temp;Humidity;BMP_temperature;BMP_pressure;BME280_temperature;BME280_humidity;BME280_pressure;Samples;Min_cycle;Max_cycle;Signal;HPM_P1;HPM_P2
2023/09/14 00:02:01;;;;;;;6.85;3.28;;;;;;;;;;5025947;28;20553;-62
2023/09/14 00:04:28;;;;;;;9.85;3.30;;;;;;;;;;5027614;28;20422;-62
2023/09/14 00:06:55;;;;;;;6.47;3.50;;;;;;;;;;5022411;28;20487;-62
2023/09/14 00:09:22;;;;;;;5.60;3.00;;;;;;;;;;5027924;28;20461;-62
2023/09/14 00:11:51;;;;;;;8.07;3.58;;;;;;;;;;5025092;28;20411;-62
2023/09/14 00:14:18;;;;;;;8.32;3.35;;;;;;;;;;5026565;28;20512;-62
2023/09/14 00:16:46;;;;;;;6.23;3.20;;;;;;;;;;5022216;28;20422;-62
2023/09/14 00:19:13;;;;;;;8.25;3.50;;;;;;;;;;5025610;28;20474;-62
2023/09/14 00:21:42;;;;;;;5.85;3.55;;;;;;;;;;5022004;28;20426;-62
2023/09/14 00:24:09;;;;;;;8.02;3.47;;;;;;;;;;5024515;28;20479;-62
2023/09/14 00:26:36;;;;;;;10.18;3.70;;;;;;;;;;5018185;28;20420;-62
2023/09/14 00:29:04;;;;;;;8.35;3.60;;;;;;;;;;5022548;28;20780;-62
2023/09/14 00:31:33;;;;;;;9.98;3.65;;;;;;;;;;5023295;28;20553;-62
2023/09/14 00:34:00;;;;;;;6.20;2.95;;;;;;;;;;5024675;28;20920;-62
2023/09/14 00:36:27;;;;;;;11.10;3.40;;;;;;;;;;5022141;28;20427;-62
2023/09/14 00:38:54;;;;;;;10.13;3.40;;;;;;;;;;5025346;28;20426;-62
2023/09/14 00:41:21;;;;;;;8.70;3.45;;;;;;;;;;5022329;28;20481;-62
2023/09/14 00:43:48;;;;;;;11.02;3.28;;;;;;;;;;5025509;28;20824;-62
2023/09/14 00:46:17;;;;;;;8.52;3.22;;;;;;;;;;5021211;28;20467;-62
2023/09/14 00:48:44;;;;;;;8.52;3.47;;;;;;;;;;5026353;28;20476;-62
2023/09/14 00:51:11;;;;;;;8.83;3.53;;;;;;;;;;5022374;28;20957;-62
2023/09/14 00:53:38;;;;;;;6.70;3.40;;;;;;;;;;5025952;28;20411;-62
2023/09/14 00:56:06;;;;;;;7.13;3.50;;;;;;;;;;5011708;28;20419;-62
2023/09/14 00:58:33;;;;;;;7.50;3.13;;;;;;;;;;5021548;28;20518;-62
2023/09/14 01:01:00;;;;;;;6.95;3.00;;;;;;;;;;5021979;28;20410;-62
2023/09/14 01:03:29;;;;;;;6.90;3.17;;;;;;;;;;5020054;28;20522;-62
2023/09/14 01:05:56;;;;;;;5.63;3.20;;;;;;;;;;5022253;28;20964;-62
2023/09/14 01:08:23;;;;;;;10.38;3.78;;;;;;;;;;5024648;28;20415;-62
2023/09/14 01:10:50;;;;;;;7.85;3.40;;;;;;;;;;5022750;28;20415;-62
2023/09/14 01:13:24;;;;;;;6.88;3.72;;;;;;;;;;5023047;28;20475;-62
2023/09/14 01:15:54;;;;;;;11.27;3.85;;;;;;;;;;5023396;28;20828;-62
2023/09/14 01:18:23;;;;;;;10.48;4.07;;;;;;;;;;5026580;28;20412;-62
2023/09/14 01:21:05;;;;;;;10.25;4.10;;;;;;;;;;5029037;28;20461;-62
2023/09/14 01:23:38;;;;;;;9.77;4.53;;;;;;;;;;5023574;28;20411;-63
2023/09/14 01:26:07;;;;;;;11.30;4.35;;;;;;;;;;5015930;28;20407;-62
2023/09/14 01:28:34;;;;;;;9.65;4.40;;;;;;;;;;5025933;28;20943;-62
2023/09/14 01:31:02;;;;;;;9.47;3.83;;;;;;;;;;5027400;28;20505;-62
2023/09/14 01:33:29;;;;;;;10.33;4.10;;;;;;;;;;5014253;28;20470;-62
2023/09/14 01:36:01;;;;;;;11.63;4.40;;;;;;;;;;5019469;28;20455;-62
2023/09/14 01:38:28;;;;;;;9.43;4.15;;;;;;;;;;5014484;28;20420;-62
2023/09/14 01:40:55;;;;;;;10.85;4.35;;;;;;;;;;5019479;28;20507;-62
2023/09/14 01:43:24;;;;;;;13.90;4.43;;;;;;;;;;5020301;28;20424;-62
2023/09/14 01:45:52;;;;;;;7.43;4.13;;;;;;;;;;5021338;28;20415;-62
2023/09/14 01:48:20;;;;;;;9.20;4.55;;;;;;;;;;5022439;28;20413;-62
2023/09/14 01:50:47;;;;;;;12.50;4.47;;;;;;;;;;5016002;28;20475;-62
2023/09/14 01:53:14;;;;;;;9.85;4.35;;;;;;;;;;5021873;28;20953;-63
2023/09/14 01:55:41;;;;;;;12.40;4.30;;;;;;;;;;5018335;28;20962;-63
2023/09/14 01:58:09;;;;;;;12.27;4.85;;;;;;;;;;5021502;28;20470;-63
2023/09/14 02:00:37;;;;;;;9.98;4.50;;;;;;;;;;5029774;28;20512;-63
2023/09/14 02:03:04;;;;;;;12.05;4.78;;;;;;;;;;5029216;28;20465;-62
2023/09/14 02:05:31;;;;;;;8.40;4.32;;;;;;;;;;5029591;28;20468;-63
2023/09/14 02:07:58;;;;;;;10.25;4.68;;;;;;;;;;5026149;28;20465;-62
2023/09/14 02:10:25;;;;;;;15.23;4.90;;;;;;;;;;5028996;28;20832;-64
2023/09/14 02:12:52;;;;;;;7.70;4.20;;;;;;;;;;5029380;28;20415;-63
2023/09/14 02:15:19;;;;;;;10.55;4.70;;;;;;;;;;5027381;28;20467;-64
2023/09/14 02:17:48;;;;;;;11.02;4.50;;;;;;;;;;5025761;28;20824;-64
2023/09/14 02:20:15;;;;;;;11.90;4.85;;;;;;;;;;5027019;28;20842;-64
2023/09/14 02:22:42;;;;;;;9.70;4.18;;;;;;;;;;5025786;28;20442;-64
2023/09/14 02:25:09;;;;;;;12.45;4.80;;;;;;;;;;5023623;28;20419;-64
2023/09/14 02:27:36;;;;;;;10.23;5.30;;;;;;;;;;5024417;28;20408;-63
2023/09/14 02:30:04;;;;;;;18.30;6.13;;;;;;;;;;5026360;28;20424;-65
2023/09/14 02:32:31;;;;;;;12.57;5.30;;;;;;;;;;5024194;28;20494;-63
2023/09/14 02:34:59;;;;;;;13.13;5.90;;;;;;;;;;5026518;28;21107;-63
2023/09/14 02:37:26;;;;;;;11.63;5.63;;;;;;;;;;5028384;28;20500;-64
2023/09/14 02:39:53;;;;;;;11.70;5.35;;;;;;;;;;5026576;28;20427;-63
2023/09/14 02:42:20;;;;;;;15.63;5.43;;;;;;;;;;5030507;28;20920;-63
2023/09/14 02:44:47;;;;;;;14.57;5.68;;;;;;;;;;5027284;28;20411;-63
2023/09/14 02:47:14;;;;;;;11.88;5.35;;;;;;;;;;5025143;28;20417;-64
2023/09/14 02:49:41;;;;;;;13.60;5.82;;;;;;;;;;5028025;28;20461;-63
2023/09/14 02:52:10;;;;;;;12.10;5.72;;;;;;;;;;5027106;28;20419;-62
2023/09/14 02:54:37;;;;;;;12.60;5.72;;;;;;;;;;5023091;28;20421;-63
2023/09/14 02:57:04;;;;;;;14.75;5.90;;;;;;;;;;5020413;28;20781;-63
2023/09/14 02:59:31;;;;;;;13.93;6.10;;;;;;;;;;5022453;28;20431;-64
2023/09/14 03:01:58;;;;;;;17.80;5.93;;;;;;;;;;5026505;28;20461;-64
2023/09/14 03:04:25;;;;;;;11.48;5.40;;;;;;;;;;5025460;28;20416;-64
2023/09/14 03:06:52;;;;;;;10.52;5.75;;;;;;;;;;5028072;28;20407;-63
2023/09/14 03:09:21;;;;;;;13.65;5.78;;;;;;;;;;5022743;28;20444;-63
2023/09/14 03:11:47;;;;;;;10.57;5.90;;;;;;;;;;5027584;28;20898;-63
2023/09/14 03:14:15;;;;;;;9.80;5.43;;;;;;;;;;5023226;28;20412;-63
2023/09/14 03:16:41;;;;;;;13.32;5.55;;;;;;;;;;5026898;28;20951;-63
2023/09/14 03:19:09;;;;;;;14.17;5.33;;;;;;;;;;5022626;28;20544;-63
2023/09/14 03:21:36;;;;;;;14.23;6.13;;;;;;;;;;5021511;28;20420;-63
2023/09/14 03:24:02;;;;;;;18.03;5.97;;;;;;;;;;5019354;28;20477;-63
2023/09/14 03:26:31;;;;;;;11.95;5.55;;;;;;;;;;5012234;28;20771;-63
2023/09/14 03:28:58;;;;;;;11.45;5.90;;;;;;;;;;5021041;28;20452;-63
2023/09/14 03:31:25;;;;;;;15.75;5.95;;;;;;;;;;5014485;28;20494;-63
2023/09/14 03:33:52;;;;;;;13.07;5.50;;;;;;;;;;5019293;28;20416;-63
2023/09/14 03:36:20;;;;;;;16.25;5.55;;;;;;;;;;5015677;28;20422;-64
2023/09/14 03:38:47;;;;;;;11.57;4.90;;;;;;;;;;5014104;28;20424;-64
2023/09/14 03:41:14;;;;;;;11.65;5.15;;;;;;;;;;5020254;28;20413;-63
2023/09/14 03:43:42;;;;;;;10.95;5.10;;;;;;;;;;5015679;28;20417;-64
2023/09/14 03:46:10;;;;;;;15.35;5.50;;;;;;;;;;5021741;28;20813;-65
2023/09/14 03:48:37;;;;;;;11.05;5.50;;;;;;;;;;5014501;28;20412;-65
2023/09/14 03:51:04;;;;;;;14.75;5.75;;;;;;;;;;5022186;28;20469;-64
2023/09/14 03:53:31;;;;;;;11.43;5.38;;;;;;;;;;5018501;28;20417;-63
2023/09/14 03:56:00;;;;;;;12.10;4.88;;;;;;;;;;5016362;28;20834;-64
2023/09/14 03:58:27;;;;;;;11.00;5.15;;;;;;;;;;5021789;28;20465;-62
2023/09/14 04:00:56;;;;;;;8.80;5.00;;;;;;;;;;5029088;28;20437;-63
2023/09/14 04:03:23;;;;;;;12.40;5.40;;;;;;;;;;5023332;28;20774;-63
2023/09/14 04:05:50;;;;;;;12.40;5.90;;;;;;;;;;5027318;28;20407;-63
2023/09/14 04:08:18;;;;;;;14.25;5.47;;;;;;;;;;5021241;28;20447;-63
2023/09/14 04:10:45;;;;;;;12.35;5.30;;;;;;;;;;5026929;28;20411;-63
2023/09/14 04:13:29;;;;;;;10.98;5.45;;;;;;;;;;5017466;28;20416;-63
2023/09/14 04:15:57;;;;;;;8.38;4.35;;;;;;;;;;5019733;28;20403;-63
2023/09/14 04:18:24;;;;;;;10.02;5.22;;;;;;;;;;5024633;28;20420;-62
2023/09/14 04:20:52;;;;;;;8.60;4.60;;;;;;;;;;5025244;28;20431;-62
2023/09/14 04:23:19;;;;;;;9.02;4.90;;;;;;;;;;5024467;28;20488;-62
2023/09/14 04:25:47;;;;;;;11.88;4.90;;;;;;;;;;5022472;28;20419;-62
2023/09/14 04:28:14;;;;;;;13.00;4.83;;;;;;;;;;5022196;28;20833;-62
2023/09/14 04:30:43;;;;;;;10.65;5.03;;;;;;;;;;5025742;28;20411;-62
2023/09/14 04:33:11;;;;;;;14.38;4.85;;;;;;;;;;5020146;28;20554;-62
2023/09/14 04:35:38;;;;;;;9.98;4.60;;;;;;;;;;5025325;28;20518;-62
2023/09/14 04:38:06;;;;;;;8.68;4.43;;;;;;;;;;5021688;28;20797;-62
2023/09/14 04:40:33;;;;;;;12.33;4.47;;;;;;;;;;5025008;28;20482;-62
2023/09/14 04:43:00;;;;;;;11.95;4.50;;;;;;;;;;5024751;28;20908;-62
2023/09/14 04:45:27;;;;;;;14.23;5.03;;;;;;;;;;5023656;28;20479;-62
2023/09/14 04:47:54;;;;;;;11.65;4.90;;;;;;;;;;5025476;28;20816;-63
2023/09/14 04:50:22;;;;;;;9.48;4.82;;;;;;;;;;5024452;28;20412;-62
2023/09/14 04:52:49;;;;;;;10.95;5.45;;;;;;;;;;5029508;28;20564;-62
2023/09/14 04:55:16;;;;;;;11.15;5.22;;;;;;;;;;5024793;28;20768;-62
2023/09/14 04:57:43;;;;;;;12.43;5.30;;;;;;;;;;5023594;28;20422;-62
2023/09/14 05:00:11;;;;;;;13.57;5.32;;;;;;;;;;5025491;28;20984;-62
2023/09/14 05:02:39;;;;;;;13.80;4.93;;;;;;;;;;5028772;28;20418;-62
2023/09/14 05:05:06;;;;;;;14.20;6.18;;;;;;;;;;5025458;28;20508;-62
2023/09/14 05:07:35;;;;;;;13.20;5.72;;;;;;;;;;5031671;28;20453;-62
2023/09/14 05:10:03;;;;;;;11.93;5.67;;;;;;;;;;5026421;28;20883;-62
2023/09/14 05:12:30;;;;;;;11.65;5.82;;;;;;;;;;5030470;28;20418;-63
2023/09/14 05:14:57;;;;;;;12.32;5.88;;;;;;;;;;5028779;28;20414;-63
2023/09/14 05:17:24;;;;;;;11.93;5.90;;;;;;;;;;5031853;28;20887;-63
2023/09/14 05:19:51;;;;;;;15.95;6.20;;;;;;;;;;5026918;28;20430;-63
2023/09/14 05:22:18;;;;;;;10.35;6.30;;;;;;;;;;5030382;28;20419;-63
2023/09/14 05:24:46;;;;;;;12.50;6.10;;;;;;;;;;5026803;28;20904;-62
2023/09/14 05:27:13;;;;;;;11.98;5.18;;;;;;;;;;5022159;28;20484;-62
2023/09/14 05:29:41;;;;;;;13.30;5.50;;;;;;;;;;5026463;28;20422;-63
2023/09/14 05:32:08;;;;;;;12.77;5.30;;;;;;;;;;5026734;28;20423;-63
2023/09/14 05:34:37;;;;;;;14.98;5.57;;;;;;;;;;5024083;28;20411;-63
2023/09/14 05:37:04;;;;;;;10.63;5.60;;;;;;;;;;5023344;28;20505;-63
2023/09/14 05:39:31;;;;;;;12.90;6.00;;;;;;;;;;5025599;28;20426;-63
2023/09/14 05:41:59;;;;;;;10.55;6.10;;;;;;;;;;5029539;28;20483;-63
2023/09/14 05:44:26;;;;;;;12.70;6.10;;;;;;;;;;5024642;28;20462;-63
2023/09/14 05:46:53;;;;;;;11.43;6.38;;;;;;;;;;5029694;28;20415;-63
2023/09/14 05:49:20;;;;;;;13.55;6.50;;;;;;;;;;5024138;28;20417;-63
2023/09/14 05:51:47;;;;;;;15.52;6.07;;;;;;;;;;5029830;28;20493;-63
2023/09/14 05:54:14;;;;;;;12.47;6.10;;;;;;;;;;5021425;28;20428;-63
2023/09/14 05:56:41;;;;;;;11.60;5.75;;;;;;;;;;5023464;28;20907;-62
2023/09/14 05:59:09;;;;;;;11.20;5.83;;;;;;;;;;5021191;28;20469;-62
2023/09/14 06:01:37;;;;;;;16.42;5.97;;;;;;;;;;5020764;28;20468;-63
2023/09/14 06:04:04;;;;;;;13.18;6.47;;;;;;;;;;5025253;28;20501;-63
2023/09/14 06:06:31;;;;;;;17.07;6.67;;;;;;;;;;5027850;28;20552;-63
2023/09/14 06:08:58;;;;;;;13.30;6.20;;;;;;;;;;5025828;28;20418;-63
2023/09/14 06:11:25;;;;;;;17.75;6.68;;;;;;;;;;5026981;28;20471;-63
2023/09/14 06:13:52;;;;;;;13.68;6.25;;;;;;;;;;5028566;28;20817;-63
2023/09/14 06:16:20;;;;;;;13.93;6.18;;;;;;;;;;5027465;28;20474;-63
2023/09/14 06:18:47;;;;;;;11.32;5.95;;;;;;;;;;5025543;28;20488;-63
2023/09/14 06:21:14;;;;;;;18.38;5.90;;;;;;;;;;5026406;28;20432;-63
2023/09/14 06:23:41;;;;;;;12.38;6.55;;;;;;;;;;5027751;28;20411;-65
2023/09/14 06:26:08;;;;;;;14.15;6.43;;;;;;;;;;5022206;28;20469;-65
2023/09/14 06:28:35;;;;;;;14.70;6.50;;;;;;;;;;5026512;28;20901;-65
2023/09/14 06:31:02;;;;;;;12.82;6.80;;;;;;;;;;5026301;28;20415;-65
2023/09/14 06:33:31;;;;;;;15.43;6.80;;;;;;;;;;5026208;28;20425;-65
2023/09/14 06:35:58;;;;;;;15.63;7.25;;;;;;;;;;5021400;28;20542;-64
2023/09/14 06:38:25;;;;;;;15.63;6.90;;;;;;;;;;5025240;28;20827;-65
2023/09/14 06:40:52;;;;;;;14.05;6.93;;;;;;;;;;5026353;28;20430;-64
2023/09/14 06:43:19;;;;;;;15.60;6.65;;;;;;;;;;5024660;28;20777;-65
2023/09/14 06:45:46;;;;;;;11.77;6.75;;;;;;;;;;5027060;28;20414;-65
2023/09/14 06:48:13;;;;;;;16.20;6.78;;;;;;;;;;5023533;28;20441;-63
2023/09/14 06:50:41;;;;;;;15.88;6.60;;;;;;;;;;5026853;28;20411;-64
2023/09/14 06:53:10;;;;;;;15.25;6.43;;;;;;;;;;5026358;28;20460;-62
2023/09/14 06:55:38;;;;;;;19.23;7.38;;;;;;;;;;5024479;28;20475;-62
2023/09/14 06:58:05;;;;;;;13.15;6.30;;;;;;;;;;5022748;28;20411;-63
2023/09/14 07:00:32;;;;;;;14.32;6.18;;;;;;;;;;5024902;28;21670;-63
2023/09/14 07:02:59;;;;;;;14.07;5.95;;;;;;;;;;5026623;28;20438;-64
2023/09/14 07:05:26;;;;;;;11.43;5.88;;;;;;;;;;5023937;28;20564;-64
2023/09/14 07:07:55;;;;;;;13.80;6.13;;;;;;;;;;5026704;28;20545;-64
2023/09/14 07:10:22;;;;;;;15.10;6.15;;;;;;;;;;5022906;28;20446;-64
2023/09/14 07:12:49;;;;;;;11.25;6.07;;;;;;;;;;5026285;28;20485;-64
2023/09/14 07:15:16;;;;;;;13.95;6.22;;;;;;;;;;5015348;28;20413;-66
2023/09/14 07:17:43;;;;;;;11.80;6.20;;;;;;;;;;5021137;28;20412;-63
2023/09/14 07:20:10;;;;;;;16.02;6.05;;;;;;;;;;5022212;28;20788;-64
2023/09/14 07:22:38;;;;;;;12.23;6.07;;;;;;;;;;5020192;28;20420;-65
2023/09/14 07:25:08;;;;;;;12.00;5.95;;;;;;;;;;5020170;28;20852;-66
2023/09/14 07:27:35;;;;;;;12.55;6.25;;;;;;;;;;5020386;28;20439;-65
2023/09/14 07:30:02;;;;;;;13.55;6.65;;;;;;;;;;5022737;28;20499;-65
2023/09/14 07:32:29;;;;;;;12.07;6.25;;;;;;;;;;5027338;28;20419;-65
2023/09/14 07:35:00;;;;;;;12.13;6.18;;;;;;;;;;5025115;28;20445;-64
2023/09/14 07:37:27;;;;;;;13.93;6.32;;;;;;;;;;5026844;28;20846;-66
2023/09/14 07:39:54;;;;;;;13.63;6.35;;;;;;;;;;5024534;28;20506;-62
2023/09/14 07:42:22;;;;;;;12.43;6.07;;;;;;;;;;5027967;28;20464;-61
2023/09/14 07:44:49;;;;;;;13.10;6.70;;;;;;;;;;5019496;28;20407;-62
2023/09/14 07:47:16;;;;;;;12.68;6.05;;;;;;;;;;5025162;28;20548;-62
2023/09/14 07:49:45;;;;;;;11.65;6.90;;;;;;;;;;5023075;28;20446;-62
2023/09/14 07:52:12;;;;;;;11.95;6.60;;;;;;;;;;5025458;28;20481;-61
2023/09/14 07:54:39;;;;;;;13.07;7.05;;;;;;;;;;5018000;28;20818;-61
2023/09/14 07:57:06;;;;;;;13.20;7.20;;;;;;;;;;5021882;28;20473;-61
2023/09/14 07:59:34;;;;;;;15.00;6.85;;;;;;;;;;5022451;28;20422;-64
2023/09/14 08:02:01;;;;;;;11.98;6.85;;;;;;;;;;5025217;28;20453;-65
2023/09/14 08:04:28;;;;;;;11.95;7.10;;;;;;;;;;5015014;28;20428;-64
2023/09/14 08:06:55;;;;;;;12.75;7.20;;;;;;;;;;5014775;28;20511;-65
2023/09/14 08:09:22;;;;;;;14.73;7.05;;;;;;;;;;5017383;28;20416;-64
2023/09/14 08:11:50;;;;;;;15.23;7.90;;;;;;;;;;5014756;28;20452;-66
2023/09/14 08:14:17;;;;;;;13.85;7.90;;;;;;;;;;5014867;28;20768;-64
2023/09/14 08:16:45;;;;;;;13.68;7.70;;;;;;;;;;5015725;28;20416;-64
2023/09/14 08:19:12;;;;;;;17.27;7.30;;;;;;;;;;5013330;28;20872;-61
2023/09/14 08:21:39;;;;;;;13.63;7.50;;;;;;;;;;5014882;28;20432;-61
2023/09/14 08:24:07;;;;;;;13.07;7.10;;;;;;;;;;5017347;28;20413;-61
2023/09/14 08:26:34;;;;;;;14.32;7.05;;;;;;;;;;5017395;28;20413;-61
2023/09/14 08:29:01;;;;;;;12.43;7.03;;;;;;;;;;5022424;28;20476;-61
2023/09/14 08:31:28;;;;;;;11.25;6.90;;;;;;;;;;5018569;28;20496;-64
2023/09/14 08:33:56;;;;;;;9.63;6.32;;;;;;;;;;5013828;28;20423;-64
2023/09/14 08:36:23;;;;;;;9.75;6.78;;;;;;;;;;5015212;28;20856;-66
2023/09/14 08:38:50;;;;;;;9.52;6.10;;;;;;;;;;5015065;28;20428;-63
2023/09/14 08:41:22;;;;;;;12.20;5.55;;;;;;;;;;5017444;28;20893;-64
2023/09/14 08:43:49;;;;;;;8.70;5.43;;;;;;;;;;5011528;28;20412;-63
2023/09/14 08:46:17;;;;;;;8.77;5.35;;;;;;;;;;5017970;28;20422;-62
2023/09/14 08:48:45;;;;;;;10.98;5.10;;;;;;;;;;5011653;28;20417;-62
2023/09/14 08:51:14;;;;;;;8.80;4.53;;;;;;;;;;5017930;28;20415;-62
2023/09/14 08:53:43;;;;;;;9.77;3.90;;;;;;;;;;5015304;28;20499;-62
2023/09/14 08:56:12;;;;;;;8.85;4.75;;;;;;;;;;5020838;28;20511;-61
2023/09/14 08:58:40;;;;;;;9.13;4.82;;;;;;;;;;5023203;28;20426;-62
2023/09/14 09:01:09;;;;;;;9.70;5.23;;;;;;;;;;5021629;28;20426;-64
2023/09/14 09:03:36;;;;;;;7.72;5.05;;;;;;;;;;5026373;28;20503;-64
2023/09/14 09:06:03;;;;;;;7.35;4.13;;;;;;;;;;5021394;28;20411;-61
2023/09/14 09:08:32;;;;;;;8.13;3.50;;;;;;;;;;5025279;28;20412;-62
2023/09/14 09:10:59;;;;;;;7.30;3.80;;;;;;;;;;5021624;28;20449;-61
2023/09/14 09:13:33;;;;;;;7.72;4.00;;;;;;;;;;5024463;28;20511;-64
2023/09/14 09:16:00;;;;;;;7.25;3.70;;;;;;;;;;5021938;28;20481;-65
2023/09/14 09:18:27;;;;;;;7.50;3.65;;;;;;;;;;5024543;28;20459;-62
2023/09/14 09:20:54;;;;;;;6.80;3.58;;;;;;;;;;5019230;28;20407;-63
2023/09/14 09:23:22;;;;;;;5.90;3.50;;;;;;;;;;5025581;28;20428;-58
2023/09/14 09:25:50;;;;;;;5.63;2.70;;;;;;;;;;5018032;28;20412;-60
2023/09/14 09:28:18;;;;;;;5.85;2.83;;;;;;;;;;5021867;28;20415;-61
2023/09/14 09:30:45;;;;;;;7.10;3.00;;;;;;;;;;5010398;28;20432;-63
2023/09/14 09:33:12;;;;;;;5.65;2.88;;;;;;;;;;5012433;28;20421;-64
2023/09/14 09:35:39;;;;;;;6.60;2.78;;;;;;;;;;5015874;28;20491;-63
2023/09/14 09:38:13;;;;;;;4.65;2.45;;;;;;;;;;5015576;28;20447;-61
2023/09/14 09:40:42;;;;;;;5.60;2.57;;;;;;;;;;5020750;28;20423;-63
2023/09/14 09:43:11;;;;;;;4.32;2.38;;;;;;;;;;5017145;28;21269;-62
2023/09/14 09:45:40;;;;;;;5.70;2.60;;;;;;;;;;5020940;28;20416;-62
2023/09/14 09:48:09;;;;;;;5.28;2.50;;;;;;;;;;5015451;28;20409;-61
2023/09/14 09:50:36;;;;;;;6.68;2.50;;;;;;;;;;5018210;28;20410;-61
2023/09/14 09:53:03;;;;;;;7.43;2.70;;;;;;;;;;5017987;28;20892;-62
2023/09/14 09:55:30;;;;;;;6.18;2.80;;;;;;;;;;5020961;28;21068;-62
2023/09/14 09:57:58;;;;;;;6.07;2.20;;;;;;;;;;5025638;28;20747;-64
2023/09/14 10:00:31;;;;;;;6.63;2.90;;;;;;;;;;5025766;28;20422;-63
2023/09/14 10:02:58;;;;;;;6.03;2.50;;;;;;;;;;5024161;28;20794;-62
2023/09/14 10:05:28;;;;;;;5.85;2.60;;;;;;;;;;5021503;28;20886;-64
2023/09/14 10:07:57;;;;;;;7.13;2.70;;;;;;;;;;5022080;28;20528;-63
2023/09/14 10:10:25;;;;;;;8.65;3.15;;;;;;;;;;5017473;28;20482;-63
2023/09/14 10:12:53;;;;;;;8.43;2.88;;;;;;;;;;5020123;28;20473;-66
2023/09/14 10:15:20;;;;;;;5.47;2.67;;;;;;;;;;5019869;28;20460;-62
2023/09/14 10:17:52;;;;;;;5.68;2.95;;;;;;;;;;5026125;28;21085;-64
2023/09/14 10:20:19;;;;;;;7.07;2.90;;;;;;;;;;5024957;28;20486;-63
2023/09/14 10:22:48;;;;;;;7.72;3.03;;;;;;;;;;5026882;28;20485;-64
2023/09/14 10:25:16;;;;;;;7.03;2.88;;;;;;;;;;5020065;28;20414;-65
2023/09/14 10:27:43;;;;;;;8.15;4.18;;;;;;;;;;5022503;28;20419;-65
2023/09/14 10:30:13;;;;;;;6.28;2.80;;;;;;;;;;5025887;28;20426;-62
2023/09/14 10:32:41;;;;;;;6.85;2.78;;;;;;;;;;5025029;28;20411;-64
2023/09/14 10:35:10;;;;;;;7.20;2.90;;;;;;;;;;5025407;28;20870;-64
2023/09/14 10:37:37;;;;;;;7.43;2.83;;;;;;;;;;5026879;28;20449;-64
2023/09/14 10:40:05;;;;;;;7.43;2.50;;;;;;;;;;5029223;28;20441;-63
2023/09/14 10:42:32;;;;;;;4.75;2.30;;;;;;;;;;5022842;28;20523;-63
2023/09/14 10:44:59;;;;;;;4.82;2.33;;;;;;;;;;5027549;28;20454;-64
2023/09/14 10:47:31;;;;;;;4.82;2.60;;;;;;;;;;5019330;28;20425;-63
2023/09/14 10:49:58;;;;;;;6.80;2.50;;;;;;;;;;5027970;28;20438;-66
2023/09/14 10:52:27;;;;;;;4.85;2.25;;;;;;;;;;5024292;28;20409;-65
2023/09/14 10:54:54;;;;;;;7.50;2.20;;;;;;;;;;5026097;28;20427;-66
2023/09/14 10:57:27;;;;;;;5.63;2.40;;;;;;;;;;5023921;28;20428;-66
2023/09/14 10:59:54;;;;;;;5.60;2.50;;;;;;;;;;5027781;28;20925;-67
2023/09/14 11:02:42;;;;;;;5.05;2.35;;;;;;;;;;5016084;28;20776;-67
2023/09/14 11:05:12;;;;;;;4.47;2.20;;;;;;;;;;5017823;28;20737;-65
2023/09/14 11:07:41;;;;;;;7.45;2.92;;;;;;;;;;5017041;28;20415;-65
2023/09/14 11:10:09;;;;;;;4.55;2.33;;;;;;;;;;5021145;28;20848;-66
2023/09/14 11:12:37;;;;;;;6.43;2.42;;;;;;;;;;5025629;28;20837;-67
2023/09/14 11:15:14;;;;;;;7.25;3.08;;;;;;;;;;5025531;28;20819;-67
2023/09/14 11:17:42;;;;;;;6.15;2.60;;;;;;;;;;5025330;28;20509;-68
2023/09/14 11:20:24;;;;;;;7.72;2.95;;;;;;;;;;5026515;28;20415;-67
2023/09/14 11:22:54;;;;;;;7.57;2.78;;;;;;;;;;5022711;28;20431;-67
2023/09/14 11:25:26;;;;;;;5.43;2.85;;;;;;;;;;5021359;28;20437;-66
2023/09/14 11:27:53;;;;;;;5.80;2.50;;;;;;;;;;5023353;28;20743;-66
2023/09/14 11:30:21;;;;;;;5.72;2.65;;;;;;;;;;5025228;28;20413;-64
2023/09/14 11:32:48;;;;;;;6.72;2.88;;;;;;;;;;5022798;28;20413;-64
2023/09/14 11:35:15;;;;;;;8.30;3.00;;;;;;;;;;5022852;28;20413;-65
2023/09/14 11:37:42;;;;;;;7.13;2.78;;;;;;;;;;5027463;28;20423;-64
2023/09/14 11:40:15;;;;;;;6.25;3.03;;;;;;;;;;5023519;28;20789;-65
2023/09/14 11:43:00;;;;;;;5.75;2.88;;;;;;;;;;5027428;28;20943;-66
2023/09/14 11:45:27;;;;;;;6.70;2.50;;;;;;;;;;5018819;28;20417;-65
2023/09/14 11:47:54;;;;;;;5.95;2.30;;;;;;;;;;5027081;28;20415;-65
2023/09/14 11:50:24;;;;;;;6.65;2.80;;;;;;;;;;5021137;28;20516;-65
2023/09/14 11:52:51;;;;;;;5.33;2.50;;;;;;;;;;5027130;28;20832;-65
2023/09/14 11:55:22;;;;;;;4.93;2.45;;;;;;;;;;5022846;28;20473;-66
2023/09/14 11:57:49;;;;;;;6.53;2.92;;;;;;;;;;5019087;28;20418;-66
2023/09/14 12:00:16;;;;;;;4.55;2.70;;;;;;;;;;5022422;28;20419;-66
2023/09/14 12:02:43;;;;;;;5.63;2.90;;;;;;;;;;5025450;28;20465;-66
2023/09/14 12:05:10;;;;;;;7.78;2.70;;;;;;;;;;5022975;28;20832;-66
2023/09/14 12:07:37;;;;;;;5.60;2.72;;;;;;;;;;5024201;28;20854;-66
2023/09/14 12:10:17;;;;;;;5.47;2.60;;;;;;;;;;5022886;28;20489;-66
2023/09/14 12:12:46;;;;;;;5.07;2.75;;;;;;;;;;5024760;28;20403;-66
2023/09/14 12:15:18;;;;;;;7.13;2.97;;;;;;;;;;5021651;28;20845;-67
2023/09/14 12:17:50;;;;;;;5.88;2.80;;;;;;;;;;5019861;28;21228;-66
2023/09/14 12:20:17;;;;;;;4.95;2.70;;;;;;;;;;5024820;28;20441;-66
2023/09/14 12:22:45;;;;;;;5.93;2.80;;;;;;;;;;5023806;28;20438;-67
2023/09/14 12:25:14;;;;;;;5.32;2.90;;;;;;;;;;5022155;28;20415;-65
2023/09/14 12:27:41;;;;;;;6.47;2.90;;;;;;;;;;5020181;28;20417;-67
2023/09/14 12:30:11;;;;;;;6.28;2.97;;;;;;;;;;5020642;28;20413;-66
2023/09/14 12:32:39;;;;;;;6.28;2.70;;;;;;;;;;5016116;28;20470;-66
2023/09/14 12:35:06;;;;;;;5.47;2.63;;;;;;;;;;5021284;28;20742;-67
2023/09/14 12:37:34;;;;;;;6.10;3.03;;;;;;;;;;5019614;28;20503;-66
2023/09/14 12:40:06;;;;;;;5.68;3.08;;;;;;;;;;5023126;28;20414;-64
2023/09/14 12:42:35;;;;;;;4.22;2.88;;;;;;;;;;5019247;28;20429;-65
2023/09/14 12:45:04;;;;;;;5.18;2.60;;;;;;;;;;5024295;28;20468;-66
2023/09/14 12:47:32;;;;;;;4.57;2.70;;;;;;;;;;5017798;28;20424;-64
2023/09/14 12:49:59;;;;;;;6.30;2.70;;;;;;;;;;5027070;28;20411;-64
2023/09/14 12:52:27;;;;;;;4.82;2.83;;;;;;;;;;5009707;28;20428;-65
2023/09/14 12:54:54;;;;;;;6.07;2.80;;;;;;;;;;5017893;28;20459;-67
2023/09/14 12:57:21;;;;;;;3.58;2.40;;;;;;;;;;5018230;28;20417;-66
2023/09/14 13:00:00;;;;;;;4.60;2.65;;;;;;;;;;5016564;28;20428;-66
2023/09/14 13:02:28;;;;;;;4.35;2.65;;;;;;;;;;5016038;28;20427;-66
2023/09/14 13:04:57;;;;;;;7.33;2.83;;;;;;;;;;5013109;28;20450;-67
2023/09/14 13:07:24;;;;;;;6.55;3.00;;;;;;;;;;5019430;28;20418;-66
2023/09/14 13:10:06;;;;;;;5.35;2.78;;;;;;;;;;5013510;28;20424;-66
2023/09/14 13:12:33;;;;;;;5.47;2.47;;;;;;;;;;5014076;28;20474;-66
2023/09/14 13:15:00;;;;;;;4.25;2.60;;;;;;;;;;5017437;28;20807;-67
2023/09/14 13:17:28;;;;;;;5.65;2.88;;;;;;;;;;5018720;28;20423;-66
2023/09/14 13:19:58;;;;;;;5.03;2.83;;;;;;;;;;5017593;28;20421;-68
2023/09/14 13:22:25;;;;;;;5.63;2.80;;;;;;;;;;5014777;28;20491;-66
2023/09/14 13:24:52;;;;;;;6.35;2.67;;;;;;;;;;5019123;28;21174;-68
2023/09/14 13:27:19;;;;;;;4.95;2.38;;;;;;;;;;5021416;28;20434;-66
2023/09/14 13:29:46;;;;;;;6.15;2.92;;;;;;;;;;5028002;28;20415;-66
2023/09/14 13:32:13;;;;;;;3.73;2.63;;;;;;;;;;5025637;28;20958;-67
2023/09/14 13:34:40;;;;;;;4.50;2.47;;;;;;;;;;5028000;28;20488;-66
2023/09/14 13:37:09;;;;;;;5.32;2.47;;;;;;;;;;5031718;28;20465;-66
2023/09/14 13:39:36;;;;;;;4.25;2.55;;;;;;;;;;5030227;28;20812;-66
2023/09/14 13:42:03;;;;;;;4.55;2.85;;;;;;;;;;5028125;28;20472;-65
2023/09/14 13:44:30;;;;;;;4.88;2.97;;;;;;;;;;5025239;28;20500;-68
2023/09/14 13:46:57;;;;;;;4.65;2.90;;;;;;;;;;5027777;28;20488;-67
2023/09/14 13:49:24;;;;;;;5.05;2.55;;;;;;;;;;5025130;28;20425;-68
2023/09/14 13:51:51;;;;;;;5.78;2.70;;;;;;;;;;5027509;28;20411;-67
2023/09/14 13:54:20;;;;;;;5.80;2.58;;;;;;;;;;5026006;28;20813;-69
2023/09/14 13:56:46;;;;;;;5.83;2.73;;;;;;;;;;5023889;28;20419;-68
2023/09/14 13:59:14;;;;;;;4.93;2.88;;;;;;;;;;5028248;28;20441;-66
2023/09/14 14:01:42;;;;;;;4.88;2.70;;;;;;;;;;5028608;28;21389;-69
2023/09/14 14:04:10;;;;;;;5.18;2.75;;;;;;;;;;5025137;28;20480;-68
2023/09/14 14:06:37;;;;;;;5.78;2.90;;;;;;;;;;5028640;28;20528;-69
2023/09/14 14:09:04;;;;;;;4.07;2.50;;;;;;;;;;5028216;28;20836;-65
2023/09/14 14:11:32;;;;;;;3.78;2.75;;;;;;;;;;5027127;28;20905;-67
2023/09/14 14:14:00;;;;;;;6.00;2.90;;;;;;;;;;5026387;28;20496;-68
2023/09/14 14:16:27;;;;;;;5.10;3.20;;;;;;;;;;5026797;28;20770;-68
2023/09/14 14:18:54;;;;;;;3.88;2.80;;;;;;;;;;5027306;28;20422;-66
2023/09/14 14:21:21;;;;;;;4.73;2.83;;;;;;;;;;5030444;28;20419;-67
2023/09/14 14:23:48;;;;;;;5.00;2.97;;;;;;;;;;5025730;28;20426;-67
2023/09/14 14:26:15;;;;;;;6.32;2.70;;;;;;;;;;5023332;28;20418;-66
2023/09/14 14:28:44;;;;;;;6.82;2.95;;;;;;;;;;5023105;28;20471;-68
2023/09/14 14:31:11;;;;;;;4.03;2.70;;;;;;;;;;5029915;28;20418;-65
2023/09/14 14:33:38;;;;;;;4.70;3.00;;;;;;;;;;5023891;28;20408;-66
2023/09/14 14:36:05;;;;;;;5.87;2.90;;;;;;;;;;5031195;28;20476;-67
2023/09/14 14:38:32;;;;;;;4.90;2.72;;;;;;;;;;5026096;28;20416;-64
2023/09/14 14:40:59;;;;;;;5.93;3.00;;;;;;;;;;5028841;28;20837;-68